Frank Wiley Field Miles City US
ICAO: KMLS
IATA: MLS
Category: Medium
Scheduled Services: Yes

Elevation: 2630 ft
TransAlt. 18000 ft.

Airport Communications:
ASOS:135.575
GREAT FALLS RDO:122.2
CTAF/UNICOM:123

KMLS Zoom In..

Runways:

(A) RW 04 length 5680 ft width 75 ft
---- / hdg 40

(B) RW 12 length 5628 ft width 100 ft
---- / hdg 123

(C) RW 22 length 5680 ft width 75 ft
---- / hdg 220

(D) RW 30 length 5628 ft width 100 ft
---- / hdg 303

Location; KMLS
Day. 20 / Time. 01.53 Zulu
* Altimeter: 29.95
* Temperature: 28° c. 82.4°f.
* Wind from: 010° Speed 08 kn.
Dewpoint: 12° c.
Visibility: 10 Statute Miles.
Clouds: Clear (automated report).

KMLS 200153Z AUTO 01008KT 10SM CLR 28/12 A2995 RMK AO2 SLP121 T02780117


Wind From 010°
Speed 08 kn.

 
 
jpsmedia.com for Web Design worldairports.se 2018   terms of use